Time;durP1;ratioP1;P1;durP2;ratioP2;P2;SDS_P1;SDS_P2;PMS_P1;PMS_P2;Temp;Humidity;BMP_temperature;BMP_pressure;BME280_temperature;BME280_humidity;BME280_pressure;Samples;Min_cycle;Max_cycle;Signal;HPM_P1;HPM_P2
2022/11/12 00:03:21;;;;;;;;;;;;;;;;;;10581744;28;19940;-69
2022/11/12 00:08:23;;;;;;;;;;;;;;;;;;10581012;28;19924;-69
2022/11/12 00:13:25;;;;;;;;;;;;;;;;;;10580872;28;20374;-69
2022/11/12 00:18:28;;;;;;;;;;;;;;;;;;10580759;28;20332;-69
2022/11/12 00:23:30;;;;;;;;;;;;;;;;;;10581273;28;19931;-69
2022/11/12 00:28:32;;;;;;;;;;;;;;;;;;10563694;28;19924;-68
2022/11/12 00:33:39;;;;;;;;;;;;;;;;;;10581111;28;19927;-69
2022/11/12 00:38:41;;;;;;;;;;;;;;;;;;10584572;28;20359;-69
2022/11/12 00:43:43;;;;;;;;;;;;;;;;;;10589001;28;19924;-69
2022/11/12 00:48:45;;;;;;;;;;;;;;;;;;10589412;28;19977;-69
2022/11/12 00:53:48;;;;;;;;;;;;;;;;;;10589298;28;19923;-68
2022/11/12 00:58:50;;;;;;;;;;;;;;;;;;10589098;28;19923;-68
2022/11/12 01:03:52;;;;;;;;;;;;;;;;;;10588228;28;19924;-68
2022/11/12 01:08:54;;;;;;;;;;;;;;;;;;10588585;28;19924;-68
2022/11/12 01:13:56;;;;;;;;;;;;;;;;;;10588374;28;20316;-68
2022/11/12 01:18:58;;;;;;;;;;;;;;;;;;10570203;28;19927;-68
2022/11/12 01:24:00;;;;;;;;;;;;;;;;;;10588035;28;19923;-68
2022/11/12 01:29:02;;;;;;;;;;;;;;;;;;10587254;28;19927;-68
2022/11/12 01:34:04;;;;;;;;;;;;;;;;;;10587462;28;19927;-68
2022/11/12 01:39:06;;;;;;;;;;;;;;;;;;10587455;28;19973;-68
2022/11/12 01:44:08;;;;;;;;;;;;;;;;;;10586647;28;19932;-68
2022/11/12 01:49:10;;;;;;;;;;;;;;;;;;10586858;28;19969;-69
2022/11/12 01:54:12;;;;;;;;;;;;;;;;;;10586938;28;20347;-69
2022/11/12 01:59:14;;;;;;;;;;;;;;;;;;10586082;28;19925;-69
2022/11/12 02:04:16;;;;;;;;;;;;;;;;;;10586488;28;19924;-68
2022/11/12 02:09:18;;;;;;;;;;;;;;;;;;10586199;28;19927;-69
2022/11/12 02:14:20;;;;;;;;;;;;;;;;;;10586040;28;19924;-68
2022/11/12 02:19:23;;;;;;;;;;;;;;;;;;10567115;28;19927;-69
2022/11/12 02:24:25;;;;;;;;;;;;;;;;;;10584948;28;20282;-69
2022/11/12 02:29:27;;;;;;;;;;;;;;;;;;10585369;28;19923;-69
2022/11/12 02:34:29;;;;;;;;;;;;;;;;;;10584656;28;19928;-69
2022/11/12 02:39:31;;;;;;;;;;;;;;;;;;10584205;28;19924;-68
2022/11/12 02:44:33;;;;;;;;;;;;;;;;;;10584340;28;19924;-69
2022/11/12 02:49:35;;;;;;;;;;;;;;;;;;10583901;28;20435;-69
2022/11/12 02:54:37;;;;;;;;;;;;;;;;;;10584395;28;19924;-69
2022/11/12 02:59:39;;;;;;;;;;;;;;;;;;10583301;28;20443;-69
2022/11/12 03:04:41;;;;;;;;;;;;;;;;;;10583869;28;19924;-68
2022/11/12 03:09:49;;;;;;;;;;;;;;;;;;10583191;28;19963;-68
2022/11/12 03:14:51;;;;;;;;;;;;;;;;;;10583665;28;19924;-68
2022/11/12 03:19:53;;;;;;;;;;;;;;;;;;10583068;28;19977;-68
2022/11/12 03:24:55;;;;;;;;;;;;;;;;;;10582794;28;20328;-68
2022/11/12 03:29:57;;;;;;;;;;;;;;;;;;10583218;28;19927;-69
2022/11/12 03:34:59;;;;;;;;;;;;;;;;;;10582958;28;19978;-68
2022/11/12 03:40:01;;;;;;;;;;;;;;;;;;10582846;28;19977;-69
2022/11/12 03:45:03;;;;;;;;;;;;;;;;;;10582802;28;20316;-69
2022/11/12 03:50:05;;;;;;;;;;;;;;;;;;10582700;28;19931;-68
2022/11/12 03:55:08;;;;;;;;;;;;;;;;;;10581978;28;20378;-69
2022/11/12 04:00:10;;;;;;;;;;;;;;;;;;10582592;28;19924;-69
2022/11/12 04:10:32;;;;;;;;;;;;;;;;;;10581648;28;19969;-69
2022/11/12 04:15:34;;;;;;;;;;;;;;;;;;10588606;28;19924;-69
2022/11/12 04:26:22;;;;;;;;;;;;;;;;;;10517203;28;19923;-68
2022/11/12 04:31:24;;;;;;;;;;;;;;;;;;10589352;28;20427;-68
2022/11/12 04:36:26;;;;;;;;;;;;;;;;;;10589788;28;19985;-68
2022/11/12 04:46:49;;;;;;;;;;;;;;;;;;10589615;28;19932;-68
2022/11/12 04:52:03;;;;;;;;;;;;;;;;;;10588700;28;20332;-68
2022/11/12 04:57:05;;;;;;;;;;;;;;;;;;10589183;28;19924;-68
2022/11/12 05:02:07;;;;;;;;;;;;;;;;;;10588382;28;20432;-68
2022/11/12 05:07:09;;;;;;;;;;;;;;;;;;10588202;28;20343;-68
2022/11/12 05:12:12;;;;;;;;;;;;;;;;;;10588536;28;19923;-68
2022/11/12 05:17:14;;;;;;;;;;;;;;;;;;10588402;28;19928;-68
2022/11/12 05:22:16;;;;;;;;;;;;;;;;;;10587588;28;19923;-68
2022/11/12 05:27:38;;;;;;;;;;;;;;;;;;10587782;28;19966;-68
2022/11/12 05:32:40;;;;;;;;;;;;;;;;;;10587128;28;20371;-68
2022/11/12 05:37:42;;;;;;;;;;;;;;;;;;10587984;28;19928;-68
2022/11/12 05:42:44;;;;;;;;;;;;;;;;;;10587939;28;19923;-68
2022/11/12 05:47:46;;;;;;;;;;;;;;;;;;10587045;28;19981;-68
2022/11/12 05:52:48;;;;;;;;;;;;;;;;;;10586990;28;19969;-68
2022/11/12 05:57:50;;;;;;;;;;;;;;;;;;10586770;28;19932;-68
2022/11/12 06:02:52;;;;;;;;;;;;;;;;;;10585957;28;20320;-68
2022/11/12 06:07:54;;;;;;;;;;;;;;;;;;10585681;28;20286;-68
2022/11/12 06:12:56;;;;;;;;;;;;;;;;;;10586208;28;19924;-68
2022/11/12 06:17:58;;;;;;;;;;;;;;;;;;10585292;28;20379;-68
2022/11/12 06:23:00;;;;;;;;;;;;;;;;;;10585065;28;19928;-68
2022/11/12 06:28:02;;;;;;;;;;;;;;;;;;10585469;28;19984;-69
2022/11/12 06:33:04;;;;;;;;;;;;;;;;;;10585168;28;19931;-68
2022/11/12 06:38:06;;;;;;;;;;;;;;;;;;10584236;28;19954;-68
2022/11/12 06:43:08;;;;;;;;;;;;;;;;;;10584401;28;20448;-68
2022/11/12 06:48:10;;;;;;;;;;;;;;;;;;10585156;28;19973;-68
2022/11/12 06:53:12;;;;;;;;;;;;;;;;;;10584420;28;19989;-68
2022/11/12 06:58:15;;;;;;;;;;;;;;;;;;10583672;28;20359;-68
2022/11/12 07:03:17;;;;;;;;;;;;;;;;;;10584160;28;19924;-69
2022/11/12 07:08:19;;;;;;;;;;;;;;;;;;10583909;28;19923;-68
2022/11/12 07:13:21;;;;;;;;;;;;;;;;;;10583812;28;19977;-68
2022/11/12 07:18:23;;;;;;;;;;;;;;;;;;10583624;28;19924;-68
2022/11/12 07:23:25;;;;;;;;;;;;;;;;;;10582778;28;19923;-68
2022/11/12 07:28:27;;;;;;;;;;;;;;;;;;10582559;28;19981;-68
2022/11/12 07:33:30;;;;;;;;;;;;;;;;;;10582769;28;19923;-68
2022/11/12 07:38:32;;;;;;;;;;;;;;;;;;10582428;28;19924;-68
2022/11/12 07:43:34;;;;;;;;;;;;;;;;;;10582782;28;20366;-68
2022/11/12 07:48:36;;;;;;;;;;;;;;;;;;10582524;28;19977;-68
2022/11/12 07:53:38;;;;;;;;;;;;;;;;;;10582027;28;19924;-68
2022/11/12 07:58:40;;;;;;;;;;;;;;;;;;10581995;28;19924;-68
2022/11/12 08:03:42;;;;;;;;;;;;;;;;;;10582492;28;19969;-68
2022/11/12 08:08:44;;;;;;;;;;;;;;;;;;10582374;28;19924;-68
2022/11/12 08:13:46;;;;;;;;;;;;;;;;;;10581650;28;19924;-68
2022/11/12 08:18:49;;;;;;;;;;;;;;;;;;10581815;28;20295;-69
2022/11/12 08:23:51;;;;;;;;;;;;;;;;;;10581454;28;20386;-69
2022/11/12 08:28:53;;;;;;;;;;;;;;;;;;10582125;28;19981;-69
2022/11/12 08:33:55;;;;;;;;;;;;;;;;;;10581279;28;19928;-69
2022/11/12 08:38:57;;;;;;;;;;;;;;;;;;10581791;28;19927;-69
2022/11/12 08:43:59;;;;;;;;;;;;;;;;;;10581678;28;19924;-69
2022/11/12 08:49:06;;;;;;;;;;;;;;;;;;10581556;28;19925;-69
2022/11/12 08:54:08;;;;;;;;;;;;;;;;;;10580930;28;19924;-69
2022/11/12 08:59:10;;;;;;;;;;;;;;;;;;10582771;28;19928;-69
2022/11/12 09:04:12;;;;;;;;;;;;;;;;;;10588975;28;19928;-69
2022/11/12 09:09:14;;;;;;;;;;;;;;;;;;10588682;28;19928;-69
2022/11/12 09:14:16;;;;;;;;;;;;;;;;;;10588581;28;19923;-69
2022/11/12 09:19:18;;;;;;;;;;;;;;;;;;10587807;28;20386;-70
2022/11/12 09:24:21;;;;;;;;;;;;;;;;;;10588578;28;19971;-70
2022/11/12 09:29:23;;;;;;;;;;;;;;;;;;10587886;28;19923;-70
2022/11/12 09:34:25;;;;;;;;;;;;;;;;;;10587301;28;19924;-70
2022/11/12 09:39:27;;;;;;;;;;;;;;;;;;10587566;28;19923;-70
2022/11/12 09:44:29;;;;;;;;;;;;;;;;;;10587358;28;19976;-70
2022/11/12 09:49:36;;;;;;;;;;;;;;;;;;10587102;28;19923;-70
2022/11/12 09:54:38;;;;;;;;;;;;;;;;;;10586326;28;19953;-70
2022/11/12 09:59:40;;;;;;;;;;;;;;;;;;10586164;28;19924;-70
2022/11/12 10:04:42;;;;;;;;;;;;;;;;;;10586554;28;19924;-70
2022/11/12 10:09:44;;;;;;;;;;;;;;;;;;10586172;28;19977;-70
2022/11/12 10:14:46;;;;;;;;;;;;;;;;;;10585523;28;20394;-70
2022/11/12 10:19:48;;;;;;;;;;;;;;;;;;10585948;28;19924;-70
2022/11/12 10:24:50;;;;;;;;;;;;;;;;;;10585049;28;19927;-70
2022/11/12 10:29:52;;;;;;;;;;;;;;;;;;10585420;28;19927;-69
2022/11/12 10:34:55;;;;;;;;;;;;;;;;;;10584471;28;20313;-70
2022/11/12 10:39:57;;;;;;;;;;;;;;;;;;10585046;28;19924;-70
2022/11/12 10:44:59;;;;;;;;;;;;;;;;;;10584888;28;19924;-70
2022/11/12 10:50:01;;;;;;;;;;;;;;;;;;10584621;28;19928;-69
2022/11/12 10:55:03;;;;;;;;;;;;;;;;;;10583822;28;20427;-70
2022/11/12 11:00:05;;;;;;;;;;;;;;;;;;10584274;28;19927;-70
2022/11/12 11:05:07;;;;;;;;;;;;;;;;;;10583855;28;20336;-70
2022/11/12 11:10:09;;;;;;;;;;;;;;;;;;10583254;28;19993;-70
2022/11/12 11:15:11;;;;;;;;;;;;;;;;;;10583754;28;19931;-70
2022/11/12 11:20:13;;;;;;;;;;;;;;;;;;10582964;28;19928;-70
2022/11/12 11:25:15;;;;;;;;;;;;;;;;;;10582343;28;19924;-70
2022/11/12 11:30:17;;;;;;;;;;;;;;;;;;10582581;28;19928;-70
2022/11/12 11:35:19;;;;;;;;;;;;;;;;;;10582522;28;19923;-70
2022/11/12 11:40:21;;;;;;;;;;;;;;;;;;10583021;28;19927;-69
2022/11/12 11:45:23;;;;;;;;;;;;;;;;;;10582820;28;19980;-69
2022/11/12 11:50:25;;;;;;;;;;;;;;;;;;10594530;22;19988;-68
2022/11/12 11:55:28;;;;;;;;;;;;;;;;;;10582559;28;20370;-68
2022/11/12 12:00:30;;;;;;;;;;;;;;;;;;10582589;28;19973;-68
2022/11/12 12:05:32;;;;;;;;;;;;;;;;;;10582438;28;19924;-68
2022/11/12 12:10:34;;;;;;;;;;;;;;;;;;10582298;28;20040;-68
2022/11/12 12:15:56;;;;;;;;;;;;;;;;;;10581083;28;20012;-68
2022/11/12 12:20:59;;;;;;;;;;;;;;;;;;10580958;28;19946;-68
2022/11/12 12:26:01;;;;;;;;;;;;;;;;;;10580676;28;20290;-68
2022/11/12 12:31:03;;;;;;;;;;;;;;;;;;10581115;28;19924;-68
2022/11/12 12:36:05;;;;;;;;;;;;;;;;;;10585812;28;19969;-62
2022/11/12 12:41:07;;;;;;;;;;;;;;;;;;10588571;28;19977;-62
2022/11/12 12:46:09;;;;;;;;;;;;;;;;;;10589377;28;19924;-64
2022/11/12 12:51:11;;;;;;;;;;;;;;;;;;10588192;28;20312;-64
2022/11/12 12:56:13;;;;;;;;;;;;;;;;;;10586049;28;19932;-66
2022/11/12 13:01:15;;;;;;;;;;;;;;;;;;10588324;28;19973;-61
2022/11/12 13:06:17;;;;;;;;;;;;;;;;;;10588105;28;19924;-63
2022/11/12 13:12:20;;;;;;;;;;;;;;;;;;10587301;28;20291;-65
2022/11/12 13:16:41;;;;;;;;;;;;;;;;;;10586742;28;19924;-66
2022/11/12 13:21:43;;;;;;;;;;;;;;;;;;10587040;28;20332;-65
2022/11/12 13:26:45;;;;;;;;;;;;;;;;;;10586592;28;19923;-65
2022/11/12 13:31:47;;;;;;;;;;;;;;;;;;10587094;28;19924;-65
2022/11/12 13:36:49;;;;;;;;;;;;;;;;;;10585672;28;20263;-65
2022/11/12 13:47:12;;;;;;;;;;;;;;;;;;10586130;28;19927;-65
2022/11/12 13:52:15;;;;;;;;;;;;;;;;;;10586194;28;20040;-65
2022/11/12 13:57:17;;;;;;;;;;;;;;;;;;10584864;28;19932;-65
2022/11/12 14:02:19;;;;;;;;;;;;;;;;;;10576982;28;19928;-65
2022/11/12 14:07:21;;;;;;;;;;;;;;;;;;10585678;28;19924;-65
2022/11/12 14:12:23;;;;;;;;;;;;;;;;;;10586115;28;19972;-65
2022/11/12 14:17:25;;;;;;;;;;;;;;;;;;10585948;28;19924;-65
2022/11/12 14:22:27;;;;;;;;;;;;;;;;;;10585732;28;19979;-65
2022/11/12 14:27:32;;;;;;;;;;;;;;;;;;10585218;28;20402;-64
2022/11/12 14:32:34;;;;;;;;;;;;;;;;;;10585247;28;19924;-64
2022/11/12 14:37:36;;;;;;;;;;;;;;;;;;10585288;28;19923;-64
2022/11/12 14:42:44;;;;;;;;;;;;;;;;;;10584227;28;20030;-64
2022/11/12 14:47:46;;;;;;;;;;;;;;;;;;10584890;28;19927;-64
2022/11/12 14:52:48;;;;;;;;;;;;;;;;;;10583384;28;19928;-64
2022/11/12 14:57:50;;;;;;;;;;;;;;;;;;10562960;28;19931;-65
2022/11/12 15:02:52;;;;;;;;;;;;;;;;;;10584703;28;19973;-64
2022/11/12 15:08:00;;;;;;;;;;;;;;;;;;10584127;28;19959;-64
2022/11/12 15:13:02;;;;;;;;;;;;;;;;;;10583321;28;19977;-64
2022/11/12 15:18:04;;;;;;;;;;;;;;;;;;10582112;28;20408;-64
2022/11/12 15:23:06;;;;;;;;;;;;;;;;;;10582514;28;19924;-64
2022/11/12 15:28:08;;;;;;;;;;;;;;;;;;10581900;28;20328;-64
2022/11/12 15:33:10;;;;;;;;;;;;;;;;;;10581207;28;20447;-64
2022/11/12 15:38:12;;;;;;;;;;;;;;;;;;10581290;28;19957;-64
2022/11/12 15:43:14;;;;;;;;;;;;;;;;;;10582293;28;19924;-64
2022/11/12 15:48:16;;;;;;;;;;;;;;;;;;10579292;28;19927;-64
2022/11/12 15:53:19;;;;;;;;;;;;;;;;;;10582021;28;19969;-64
2022/11/12 15:58:21;;;;;;;;;;;;;;;;;;10580124;28;19928;-64
2022/11/12 16:03:23;;;;;;;;;;;;;;;;;;10563727;28;19923;-64
2022/11/12 16:08:25;;;;;;;;;;;;;;;;;;10583695;28;19924;-64
2022/11/12 16:13:27;;;;;;;;;;;;;;;;;;10588628;28;19969;-64
2022/11/12 16:18:30;;;;;;;;;;;;;;;;;;10587254;28;19927;-64
2022/11/12 16:23:32;;;;;;;;;;;;;;;;;;10589283;28;20035;-64
2022/11/12 16:28:34;;;;;;;;;;;;;;;;;;10589022;28;19927;-64
2022/11/12 16:33:36;;;;;;;;;;;;;;;;;;10589430;28;19941;-64
2022/11/12 16:38:38;;;;;;;;;;;;;;;;;;10588717;28;20378;-64
2022/11/12 16:43:40;;;;;;;;;;;;;;;;;;10588482;28;19931;-64
2022/11/12 16:48:42;;;;;;;;;;;;;;;;;;10588858;28;19928;-64
2022/11/12 16:53:44;;;;;;;;;;;;;;;;;;10589438;28;19931;-64
2022/11/12 16:58:47;;;;;;;;;;;;;;;;;;10571273;28;19924;-64
2022/11/12 17:03:49;;;;;;;;;;;;;;;;;;10589132;28;19973;-64
2022/11/12 17:08:51;;;;;;;;;;;;;;;;;;10588268;28;19928;-64
2022/11/12 17:13:53;;;;;;;;;;;;;;;;;;10588621;28;19924;-64
2022/11/12 17:18:55;;;;;;;;;;;;;;;;;;10587032;28;20321;-64
2022/11/12 17:23:57;;;;;;;;;;;;;;;;;;10588388;28;19931;-64
2022/11/12 17:28:59;;;;;;;;;;;;;;;;;;10586969;28;19928;-64
2022/11/12 17:34:07;;;;;;;;;;;;;;;;;;10587305;28;20385;-64
2022/11/12 17:39:09;;;;;;;;;;;;;;;;;;10587251;28;19923;-64
2022/11/12 17:44:11;;;;;;;;;;;;;;;;;;10587298;28;20423;-64
2022/11/12 17:49:13;;;;;;;;;;;;;;;;;;10586292;28;19928;-64
2022/11/12 17:54:15;;;;;;;;;;;;;;;;;;10586427;28;20332;-64
2022/11/12 17:59:17;;;;;;;;;;;;;;;;;;10587344;28;19924;-64
2022/11/12 18:04:19;;;;;;;;;;;;;;;;;;10586433;28;19931;-64
2022/11/12 18:09:24;;;;;;;;;;;;;;;;;;10585837;28;20403;-64
2022/11/12 18:14:26;;;;;;;;;;;;;;;;;;10585857;28;19924;-64
2022/11/12 18:19:29;;;;;;;;;;;;;;;;;;10585936;28;19923;-64
2022/11/12 18:24:31;;;;;;;;;;;;;;;;;;10585105;28;20351;-64
2022/11/12 18:29:34;;;;;;;;;;;;;;;;;;10584769;28;19924;-64
2022/11/12 18:34:40;;;;;;;;;;;;;;;;;;10584366;28;19928;-64
2022/11/12 18:39:42;;;;;;;;;;;;;;;;;;10585428;28;19924;-64
2022/11/12 18:44:44;;;;;;;;;;;;;;;;;;10585547;28;19924;-64
2022/11/12 18:49:46;;;;;;;;;;;;;;;;;;10583651;28;19928;-64
2022/11/12 18:54:48;;;;;;;;;;;;;;;;;;10584644;28;19977;-64
2022/11/12 18:59:53;;;;;;;;;;;;;;;;;;10583722;28;20302;-64
2022/11/12 19:04:55;;;;;;;;;;;;;;;;;;10583929;28;19923;-64
2022/11/12 19:09:58;;;;;;;;;;;;;;;;;;10584032;28;19924;-64
2022/11/12 19:15:00;;;;;;;;;;;;;;;;;;10583781;28;19973;-64
2022/11/12 19:20:02;;;;;;;;;;;;;;;;;;10583765;28;19953;-64
2022/11/12 19:25:04;;;;;;;;;;;;;;;;;;10584115;28;19923;-64
2022/11/12 19:30:06;;;;;;;;;;;;;;;;;;10582829;28;20324;-64
2022/11/12 19:35:08;;;;;;;;;;;;;;;;;;10582653;28;19923;-64
2022/11/12 19:40:10;;;;;;;;;;;;;;;;;;10575169;28;19931;-64
2022/11/12 19:45:12;;;;;;;;;;;;;;;;;;10538316;28;19928;-64
2022/11/12 19:50:15;;;;;;;;;;;;;;;;;;10538868;28;19935;-64
2022/11/12 19:55:20;;;;;;;;;;;;;;;;;;10540614;28;19924;-64
2022/11/12 20:00:22;;;;;;;;;;;;;;;;;;10562500;28;19924;-64
2022/11/12 20:05:24;;;;;;;;;;;;;;;;;;10582194;28;19946;-64
2022/11/12 20:10:27;;;;;;;;;;;;;;;;;;10582395;28;19989;-64
2022/11/12 20:15:29;;;;;;;;;;;;;;;;;;10576536;28;20352;-64
2022/11/12 20:20:31;;;;;;;;;;;;;;;;;;10567695;28;19973;-64
2022/11/12 20:25:33;;;;;;;;;;;;;;;;;;10579281;28;19931;-64
2022/11/12 20:30:35;;;;;;;;;;;;;;;;;;10579599;28;20357;-64
2022/11/12 20:35:37;;;;;;;;;;;;;;;;;;10581205;28;19961;-64
2022/11/12 20:40:39;;;;;;;;;;;;;;;;;;10580721;28;19949;-64
2022/11/12 20:45:41;;;;;;;;;;;;;;;;;;10580977;28;19927;-64
2022/11/12 20:50:43;;;;;;;;;;;;;;;;;;10580238;28;19923;-64
2022/11/12 20:56:05;;;;;;;;;;;;;;;;;;10584478;28;19962;-64
2022/11/12 21:01:07;;;;;;;;;;;;;;;;;;10587791;28;19923;-64
2022/11/12 21:06:10;;;;;;;;;;;;;;;;;;10588261;28;20281;-64
2022/11/12 21:11:12;;;;;;;;;;;;;;;;;;10587255;28;20295;-64
2022/11/12 21:16:14;;;;;;;;;;;;;;;;;;10587922;28;19972;-64
2022/11/12 21:21:17;;;;;;;;;;;;;;;;;;10587730;28;19931;-64
2022/11/12 21:26:19;;;;;;;;;;;;;;;;;;10587634;28;19931;-64
2022/11/12 21:31:21;;;;;;;;;;;;;;;;;;10587163;28;19928;-64
2022/11/12 21:36:23;;;;;;;;;;;;;;;;;;10586504;28;20447;-64
2022/11/12 21:41:25;;;;;;;;;;;;;;;;;;10586955;28;19924;-64
2022/11/12 21:46:28;;;;;;;;;;;;;;;;;;10586586;28;19954;-64
2022/11/12 21:51:30;;;;;;;;;;;;;;;;;;10585562;28;20324;-64
2022/11/12 21:56:32;;;;;;;;;;;;;;;;;;10586993;28;19973;-64
2022/11/12 22:01:35;;;;;;;;;;;;;;;;;;10585360;28;19924;-64
2022/11/12 22:06:37;;;;;;;;;;;;;;;;;;10584058;28;20031;-64
2022/11/12 22:11:39;;;;;;;;;;;;;;;;;;10585710;28;20409;-64
2022/11/12 22:16:41;;;;;;;;;;;;;;;;;;10584826;28;20383;-64
2022/11/12 22:21:43;;;;;;;;;;;;;;;;;;10585322;28;19928;-64
2022/11/12 22:26:45;;;;;;;;;;;;;;;;;;10584625;28;20312;-64
2022/11/12 22:31:47;;;;;;;;;;;;;;;;;;10584784;28;19927;-64
2022/11/12 22:36:49;;;;;;;;;;;;;;;;;;10584946;28;19969;-64
2022/11/12 22:41:51;;;;;;;;;;;;;;;;;;10583694;28;19927;-64
2022/11/12 22:46:53;;;;;;;;;;;;;;;;;;10583614;28;19923;-64
2022/11/12 22:51:55;;;;;;;;;;;;;;;;;;10583372;28;19927;-64
2022/11/12 22:56:57;;;;;;;;;;;;;;;;;;10583321;28;20383;-64
2022/11/12 23:01:59;;;;;;;;;;;;;;;;;;10583629;28;19931;-64
2022/11/12 23:07:01;;;;;;;;;;;;;;;;;;10580450;28;20332;-64
2022/11/12 23:12:04;;;;;;;;;;;;;;;;;;10583333;28;20013;-64
2022/11/12 23:17:06;;;;;;;;;;;;;;;;;;10582123;28;19953;-64
2022/11/12 23:22:08;;;;;;;;;;;;;;;;;;10581802;28;20306;-64
2022/11/12 23:27:10;;;;;;;;;;;;;;;;;;10582714;28;19977;-64
2022/11/12 23:32:12;;;;;;;;;;;;;;;;;;10581845;28;19927;-64
2022/11/12 23:37:14;;;;;;;;;;;;;;;;;;10581870;28;19984;-64
2022/11/12 23:42:16;;;;;;;;;;;;;;;;;;10582880;28;19924;-64
2022/11/12 23:47:18;;;;;;;;;;;;;;;;;;10582684;28;19924;-64
2022/11/12 23:52:20;;;;;;;;;;;;;;;;;;10582500;28;19965;-64
2022/11/12 23:57:22;;;;;;;;;;;;;;;;;;10582695;28;19923;-64
